createdAt,value
2018-08-14T00:00:45.180Z,18.40
2018-08-14T00:03:17.905Z,18.50
2018-08-14T00:05:50.332Z,18.50
2018-08-14T00:08:22.778Z,18.50
2018-08-14T00:10:55.186Z,18.60
2018-08-14T00:13:27.617Z,18.50
2018-08-14T00:16:00.021Z,18.60
2018-08-14T00:18:32.437Z,18.60
2018-08-14T00:21:04.873Z,18.60
2018-08-14T00:23:37.566Z,18.60
2018-08-14T00:26:09.993Z,18.60
2018-08-14T00:28:42.414Z,18.60
2018-08-14T00:31:14.829Z,18.60
2018-08-14T00:33:47.558Z,18.60
2018-08-14T00:36:19.978Z,18.60
2018-08-14T00:38:52.411Z,18.60
2018-08-14T00:41:24.830Z,18.60
2018-08-14T00:43:57.561Z,18.60
2018-08-14T00:46:29.973Z,18.60
2018-08-14T00:49:02.853Z,18.60
2018-08-14T00:51:35.266Z,18.60
2018-08-14T00:54:07.705Z,18.60
2018-08-14T00:56:40.125Z,18.70
2018-08-14T00:59:12.552Z,18.70
2018-08-14T01:01:44.982Z,18.70
2018-08-14T01:04:17.653Z,18.70
2018-08-14T01:06:50.370Z,18.70
2018-08-14T01:09:22.778Z,18.70
2018-08-14T01:11:55.200Z,18.70
2018-08-14T01:14:27.626Z,18.70
2018-08-14T01:17:00.373Z,18.80
2018-08-14T01:19:32.814Z,18.80
2018-08-14T01:22:05.292Z,18.80
2018-08-14T01:24:37.997Z,18.80
2018-08-14T01:27:10.682Z,18.80
2018-08-14T01:29:43.165Z,18.90
2018-08-14T01:32:15.829Z,18.90
2018-08-14T01:34:48.506Z,18.90
2018-08-14T01:37:21.262Z,18.90
2018-08-14T01:39:53.965Z,18.90
2018-08-14T01:42:26.389Z,19.00
2018-08-14T01:44:59.089Z,19.00
2018-08-14T01:47:31.568Z,19.00
2018-08-14T01:50:05.049Z,19.00
2018-08-14T01:52:37.453Z,19.00
2018-08-14T01:55:10.127Z,19.00
2018-08-14T01:57:42.602Z,19.00
2018-08-14T02:00:15.000Z,19.00
2018-08-14T02:02:47.541Z,19.00
2018-08-14T02:05:19.998Z,18.90
2018-08-14T02:07:52.409Z,18.90
2018-08-14T02:10:24.807Z,18.80
2018-08-14T02:12:57.211Z,18.80
2018-08-14T02:15:29.641Z,18.80
2018-08-14T02:18:02.063Z,18.80
2018-08-14T02:20:34.454Z,18.80
2018-08-14T02:23:06.848Z,18.70
2018-08-14T02:25:39.579Z,18.70
2018-08-14T02:28:12.298Z,18.70
2018-08-14T02:30:44.912Z,18.60
2018-08-14T02:33:17.315Z,18.60
2018-08-14T02:35:49.999Z,18.60
2018-08-14T02:38:22.705Z,18.60
2018-08-14T02:40:55.373Z,18.50
2018-08-14T02:43:27.788Z,18.50
2018-08-14T02:46:00.442Z,18.50
2018-08-14T02:48:33.193Z,18.50
2018-08-14T02:51:06.109Z,18.50
2018-08-14T02:53:38.785Z,18.50
2018-08-14T02:56:11.468Z,18.50
2018-08-14T02:58:44.121Z,18.50
2018-08-14T03:01:16.518Z,18.50
2018-08-14T03:03:49.193Z,18.50
2018-08-14T03:06:21.598Z,18.50
2018-08-14T03:08:54.006Z,18.50
2018-08-14T03:11:26.409Z,18.50
2018-08-14T03:13:58.812Z,18.50
2018-08-14T03:16:31.213Z,18.50
2018-08-14T03:19:04.246Z,18.50
2018-08-14T03:21:36.926Z,18.50
2018-08-14T03:24:09.346Z,18.60
2018-08-14T03:26:41.816Z,18.60
2018-08-14T03:29:14.187Z,18.60
2018-08-14T03:31:46.570Z,18.60
2018-08-14T03:34:18.976Z,18.60
2018-08-14T03:36:51.663Z,18.60
2018-08-14T03:39:24.069Z,18.70
2018-08-14T03:41:56.463Z,18.70
2018-08-14T03:44:28.870Z,18.70
2018-08-14T03:47:01.293Z,18.70
2018-08-14T03:49:34.035Z,18.70
2018-08-14T03:52:06.438Z,18.70
2018-08-14T03:54:39.158Z,18.70
2018-08-14T03:57:11.574Z,18.70
2018-08-14T03:59:44.001Z,18.70
2018-08-14T04:02:16.405Z,18.60
2018-08-14T04:04:48.825Z,18.60
2018-08-14T04:07:21.461Z,18.50
2018-08-14T04:09:54.215Z,18.50
2018-08-14T04:12:26.636Z,18.50
2018-08-14T04:14:59.368Z,18.50
2018-08-14T04:17:32.269Z,18.50
2018-08-14T04:20:05.877Z,18.50
2018-08-14T04:22:38.304Z,18.60
2018-08-14T04:25:10.725Z,18.60
2018-08-14T04:27:43.139Z,18.60
2018-08-14T04:30:15.565Z,18.60
2018-08-14T04:32:47.969Z,18.60
2018-08-14T04:35:20.725Z,18.60
2018-08-14T04:37:53.129Z,18.60
2018-08-14T04:40:25.605Z,18.60
2018-08-14T04:42:58.026Z,18.70
2018-08-14T04:45:30.465Z,18.60
2018-08-14T04:48:02.878Z,18.60
2018-08-14T04:50:35.404Z,18.70
2018-08-14T04:53:07.793Z,18.70
2018-08-14T04:55:40.484Z,18.70
2018-08-14T04:58:12.892Z,18.70
2018-08-14T05:00:45.317Z,18.70
2018-08-14T05:03:17.743Z,18.70
2018-08-14T05:05:50.125Z,18.80
2018-08-14T05:08:22.841Z,18.80
2018-08-14T05:10:55.246Z,18.80
2018-08-14T05:13:27.881Z,18.80
2018-08-14T05:16:00.320Z,18.90
2018-08-14T05:18:32.724Z,18.90
2018-08-14T05:21:05.180Z,18.90
2018-08-14T05:23:37.636Z,18.90
2018-08-14T05:26:10.285Z,18.90
2018-08-14T05:28:42.690Z,18.90
2018-08-14T05:31:15.096Z,19.00
2018-08-14T05:33:47.641Z,19.00
2018-08-14T05:36:19.953Z,19.00
2018-08-14T05:38:52.360Z,19.10
2018-08-14T05:41:24.761Z,19.10
2018-08-14T05:43:57.177Z,19.10
2018-08-14T05:46:29.865Z,19.00
2018-08-14T05:49:02.285Z,19.00
2018-08-14T05:51:35.050Z,19.00
2018-08-14T05:54:07.457Z,18.90
2018-08-14T05:56:39.933Z,18.70
2018-08-14T05:59:12.377Z,18.60
2018-08-14T06:01:44.863Z,18.50
2018-08-14T06:04:17.247Z,18.50
2018-08-14T06:06:49.982Z,18.50
2018-08-14T06:09:22.388Z,18.50
2018-08-14T06:11:54.815Z,18.40
2018-08-14T06:14:27.217Z,18.40
2018-08-14T06:16:59.807Z,18.40
2018-08-14T06:19:32.396Z,18.40
2018-08-14T06:22:04.843Z,18.40
2018-08-14T06:24:37.258Z,18.40
2018-08-14T06:27:09.690Z,18.40
2018-08-14T06:29:42.098Z,18.40
2018-08-14T06:32:14.521Z,18.40
2018-08-14T06:34:46.957Z,18.50
2018-08-14T06:37:19.398Z,18.50
2018-08-14T06:39:51.805Z,18.50
2018-08-14T06:42:24.241Z,18.50
2018-08-14T06:44:56.669Z,18.50
2018-08-14T06:47:29.112Z,18.60
2018-08-14T06:50:01.805Z,18.60
2018-08-14T06:52:34.517Z,18.60
2018-08-14T06:55:07.298Z,18.60
2018-08-14T06:57:39.744Z,18.60
2018-08-14T07:00:15.373Z,18.60
2018-08-14T07:02:47.844Z,18.70
2018-08-14T07:05:20.267Z,18.70
2018-08-14T07:07:52.711Z,18.70
2018-08-14T07:10:25.113Z,18.70
2018-08-14T07:12:57.874Z,18.70
2018-08-14T07:15:30.334Z,18.70
2018-08-14T07:18:02.792Z,18.80
2018-08-14T07:20:35.230Z,18.80
2018-08-14T07:23:07.670Z,18.90
2018-08-14T07:25:40.099Z,19.00
2018-08-14T07:28:12.585Z,18.90
2018-08-14T07:30:45.278Z,18.90
2018-08-14T07:33:17.693Z,18.90
2018-08-14T07:35:50.101Z,18.90
2018-08-14T07:38:22.527Z,18.90
2018-08-14T07:40:54.939Z,19.10
2018-08-14T07:43:27.377Z,19.30
2018-08-14T07:45:59.791Z,19.50
2018-08-14T07:48:32.513Z,19.50
2018-08-14T07:51:05.157Z,19.50
2018-08-14T07:53:37.588Z,19.50
2018-08-14T07:56:10.262Z,19.50
2018-08-14T07:58:42.693Z,19.50
2018-08-14T08:01:15.105Z,19.50
2018-08-14T08:03:47.532Z,19.60
2018-08-14T08:06:19.989Z,19.70
2018-08-14T08:08:52.401Z,19.60
2018-08-14T08:11:25.057Z,19.50
2018-08-14T08:13:57.509Z,19.50
2018-08-14T08:16:29.942Z,19.60
2018-08-14T08:19:02.377Z,19.60
2018-08-14T08:21:34.881Z,19.70
2018-08-14T08:24:07.677Z,19.80
2018-08-14T08:26:40.094Z,19.70
2018-08-14T08:29:12.739Z,19.70
2018-08-14T08:31:45.162Z,19.70
2018-08-14T08:34:17.930Z,19.60
2018-08-14T08:36:50.284Z,19.60
2018-08-14T08:39:22.705Z,19.50
2018-08-14T08:41:55.173Z,19.40
2018-08-14T08:44:27.566Z,19.40
2018-08-14T08:46:59.995Z,19.40
2018-08-14T08:49:32.726Z,19.40
2018-08-14T08:52:05.490Z,19.40
2018-08-14T08:54:38.190Z,19.60
2018-08-14T08:57:10.862Z,19.90
2018-08-14T08:59:43.257Z,20.40
2018-08-14T09:02:15.671Z,20.80
2018-08-14T09:04:48.077Z,21.30
2018-08-14T09:07:20.490Z,21.70
2018-08-14T09:09:52.897Z,22.20
2018-08-14T09:12:25.578Z,22.40
2018-08-14T09:14:58.285Z,22.80
2018-08-14T09:17:30.734Z,22.90
2018-08-14T09:20:04.013Z,23.10
2018-08-14T09:22:36.421Z,23.30
2018-08-14T09:25:10.798Z,23.50
2018-08-14T09:27:43.219Z,24.00
2018-08-14T09:30:16.401Z,24.40
2018-08-14T09:32:48.813Z,24.60
2018-08-14T09:35:21.500Z,24.40
2018-08-14T09:37:53.941Z,24.10
2018-08-14T09:40:26.473Z,23.70
2018-08-14T09:42:58.901Z,23.30
2018-08-14T09:45:31.302Z,23.10
2018-08-14T09:48:04.437Z,22.90
2018-08-14T09:50:37.172Z,22.70
2018-08-14T09:53:09.735Z,22.60
2018-08-14T09:55:42.478Z,22.50
2018-08-14T09:58:15.357Z,22.40
2018-08-14T10:00:48.036Z,22.30
2018-08-14T10:03:20.821Z,22.30
2018-08-14T10:05:53.236Z,22.20
2018-08-14T10:08:25.670Z,22.30
2018-08-14T10:10:58.133Z,22.30
2018-08-14T10:13:30.816Z,22.20
2018-08-14T10:16:03.261Z,22.00
2018-08-14T10:18:35.968Z,21.90
2018-08-14T10:21:08.387Z,22.00
2018-08-14T10:23:40.825Z,22.30
2018-08-14T10:26:13.252Z,22.80
2018-08-14T10:28:45.983Z,23.40
2018-08-14T10:31:18.405Z,23.50
2018-08-14T10:33:50.825Z,23.30
2018-08-14T10:36:23.267Z,23.10
2018-08-14T10:38:55.693Z,23.00
2018-08-14T10:41:28.127Z,22.80
2018-08-14T10:44:00.566Z,22.70
2018-08-14T10:46:33.097Z,23.00
2018-08-14T10:49:05.466Z,23.00
2018-08-14T10:51:38.212Z,23.10
2018-08-14T10:54:10.621Z,23.10
2018-08-14T10:56:43.014Z,22.90
2018-08-14T10:59:15.433Z,22.90
2018-08-14T11:01:47.865Z,23.10
2018-08-14T11:04:20.263Z,23.20
2018-08-14T11:06:52.972Z,23.40
2018-08-14T11:09:25.377Z,23.60
2018-08-14T11:11:57.800Z,23.90
2018-08-14T11:14:30.225Z,24.10
2018-08-14T11:17:02.918Z,24.30
2018-08-14T11:19:35.637Z,24.50
2018-08-14T11:22:08.225Z,24.60
2018-08-14T11:24:40.645Z,24.60
2018-08-14T11:27:13.141Z,24.50
2018-08-14T11:29:45.879Z,24.50
2018-08-14T11:32:18.269Z,24.50
2018-08-14T11:34:50.681Z,24.40
2018-08-14T11:37:23.378Z,24.10
2018-08-14T11:39:55.844Z,24.00
2018-08-14T11:42:28.178Z,23.90
2018-08-14T11:45:00.601Z,23.90
2018-08-14T11:47:33.021Z,24.00
2018-08-14T11:50:05.429Z,24.00
2018-08-14T11:52:38.120Z,24.10
2018-08-14T11:55:10.810Z,24.30
2018-08-14T11:57:43.480Z,24.40
2018-08-14T12:00:16.542Z,24.30
2018-08-14T12:02:49.397Z,24.30
2018-08-14T12:05:21.829Z,24.20
2018-08-14T12:07:54.233Z,24.40
2018-08-14T12:10:26.645Z,24.60
2018-08-14T12:12:59.133Z,24.80
2018-08-14T12:15:31.448Z,25.00
2018-08-14T12:18:03.966Z,25.10
2018-08-14T12:20:36.374Z,25.20
2018-08-14T12:23:08.773Z,25.40
2018-08-14T12:25:41.177Z,25.40
2018-08-14T12:28:13.575Z,25.40
2018-08-14T12:30:45.973Z,25.40
2018-08-14T12:33:18.358Z,25.20
2018-08-14T12:35:50.769Z,25.10
2018-08-14T12:38:23.217Z,24.90
2018-08-14T12:40:55.946Z,24.80
2018-08-14T12:43:28.586Z,24.80
2018-08-14T12:46:00.995Z,24.80
2018-08-14T12:48:33.437Z,24.80
2018-08-14T12:51:05.868Z,24.70
2018-08-14T12:53:38.277Z,24.60
2018-08-14T12:56:10.701Z,24.40
2018-08-14T12:58:43.430Z,24.50
2018-08-14T13:01:16.357Z,24.50
2018-08-14T13:03:48.765Z,24.60
2018-08-14T13:06:21.205Z,24.70
2018-08-14T13:08:54.248Z,24.70
2018-08-14T13:11:26.509Z,24.80
2018-08-14T13:13:59.193Z,24.80
2018-08-14T13:16:31.914Z,24.70
2018-08-14T13:19:04.316Z,24.80
2018-08-14T13:21:37.050Z,24.90
2018-08-14T13:24:09.518Z,24.90
2018-08-14T13:26:41.973Z,25.00
2018-08-14T13:29:14.402Z,25.20
2018-08-14T13:31:46.820Z,25.20
2018-08-14T13:34:19.252Z,25.30
2018-08-14T13:36:51.680Z,25.40
2018-08-14T13:39:24.345Z,25.40
2018-08-14T13:41:56.786Z,25.40
2018-08-14T13:44:29.505Z,25.30
2018-08-14T13:47:01.939Z,25.30
2018-08-14T13:49:34.388Z,25.20
2018-08-14T13:52:07.202Z,25.20
2018-08-14T13:54:39.616Z,25.20
2018-08-14T13:57:12.066Z,25.10
2018-08-14T13:59:44.482Z,25.20
2018-08-14T14:02:16.937Z,25.20
2018-08-14T14:04:49.637Z,25.10
2018-08-14T14:07:22.061Z,25.00
2018-08-14T14:09:54.473Z,24.90
2018-08-14T14:12:26.894Z,24.90
2018-08-14T14:14:59.295Z,24.80
2018-08-14T14:17:31.736Z,24.60
2018-08-14T14:20:04.450Z,24.40
2018-08-14T14:22:36.878Z,24.20
2018-08-14T14:25:09.589Z,24.00
2018-08-14T14:27:42.280Z,23.80
2018-08-14T14:30:14.995Z,23.70
2018-08-14T14:32:47.471Z,23.70
2018-08-14T14:35:19.895Z,23.90
2018-08-14T14:37:52.342Z,24.00
2018-08-14T14:40:24.754Z,24.20
2018-08-14T14:42:59.818Z,24.30
2018-08-14T14:45:32.249Z,24.40
2018-08-14T14:48:04.825Z,24.50
2018-08-14T14:50:37.445Z,24.40
2018-08-14T14:53:09.849Z,24.40
2018-08-14T14:55:42.874Z,24.40
2018-08-14T14:58:15.277Z,24.40
2018-08-14T15:00:47.909Z,24.30
2018-08-14T15:03:20.328Z,24.30
2018-08-14T15:05:52.756Z,24.30
2018-08-14T15:08:25.442Z,24.30
2018-08-14T15:10:57.838Z,24.30
2018-08-14T15:13:30.534Z,24.40
2018-08-14T15:16:02.934Z,24.30
2018-08-14T15:18:35.334Z,24.40
2018-08-14T15:21:07.758Z,24.40
2018-08-14T15:23:40.182Z,24.50
2018-08-14T15:26:12.622Z,24.60
2018-08-14T15:28:55.309Z,24.70
2018-08-14T15:31:27.722Z,24.80
2018-08-14T15:34:00.745Z,24.80
2018-08-14T15:36:33.167Z,24.90
2018-08-14T15:39:08.584Z,24.80
2018-08-14T15:41:41.081Z,24.80
2018-08-14T15:44:13.492Z,24.70
2018-08-14T15:46:45.888Z,24.60
2018-08-14T15:49:18.660Z,24.40
2018-08-14T15:51:51.236Z,24.30
2018-08-14T15:54:23.902Z,24.10
2018-08-14T15:56:56.306Z,24.10
2018-08-14T15:59:28.369Z,24.00
2018-08-14T16:02:00.800Z,24.10
2018-08-14T16:04:33.310Z,24.00
2018-08-14T16:07:05.726Z,23.90
2018-08-14T16:09:38.342Z,23.70
2018-08-14T16:12:10.744Z,23.40
2018-08-14T16:14:43.144Z,23.10
2018-08-14T16:17:15.557Z,22.60
2018-08-14T16:19:48.216Z,22.30
2018-08-14T16:22:20.649Z,21.90
2018-08-14T16:24:53.041Z,21.60
2018-08-14T16:27:25.546Z,21.50
2018-08-14T16:29:57.918Z,21.30
2018-08-14T16:32:30.340Z,21.20
2018-08-14T16:35:02.806Z,21.10
2018-08-14T16:37:35.221Z,21.10
2018-08-14T16:40:07.690Z,20.90
2018-08-14T16:42:40.117Z,20.90
2018-08-14T16:45:12.808Z,20.80
2018-08-14T16:47:45.570Z,20.70
2018-08-14T16:50:18.662Z,20.70
2018-08-14T16:52:51.684Z,20.60
2018-08-14T16:55:24.217Z,20.60
2018-08-14T16:57:56.998Z,20.60
2018-08-14T17:00:29.408Z,20.60
2018-08-14T17:03:02.169Z,20.60
2018-08-14T17:05:34.947Z,20.60
2018-08-14T17:08:07.402Z,20.60
2018-08-14T17:10:39.809Z,20.60
2018-08-14T17:13:12.267Z,20.60
2018-08-14T17:15:44.682Z,20.60
2018-08-14T17:18:17.117Z,20.60
2018-08-14T17:20:48.484Z,20.60
2018-08-14T17:23:21.245Z,20.60
2018-08-14T17:25:53.689Z,20.60
2018-08-14T17:28:26.370Z,20.60
2018-08-14T17:30:59.079Z,20.60
2018-08-14T17:33:31.514Z,20.70
2018-08-14T17:36:03.932Z,20.70
2018-08-14T17:38:36.365Z,20.70
2018-08-14T17:41:08.785Z,20.80
2018-08-14T17:43:41.550Z,20.80
2018-08-14T17:46:14.018Z,20.80
2018-08-14T17:48:46.456Z,20.80
2018-08-14T17:51:18.853Z,20.90
2018-08-14T17:53:51.310Z,20.90
2018-08-14T17:56:23.729Z,20.90
2018-08-14T17:58:56.158Z,20.90
2018-08-14T18:01:28.825Z,20.90
2018-08-14T18:04:01.253Z,20.90
2018-08-14T18:06:33.701Z,20.90
2018-08-14T18:09:08.440Z,20.80
2018-08-14T18:11:40.858Z,20.80
2018-08-14T18:14:13.325Z,20.80
2018-08-14T18:16:45.746Z,20.80
2018-08-14T18:19:18.169Z,20.80
2018-08-14T18:21:50.580Z,20.80
2018-08-14T18:24:23.025Z,20.70
2018-08-14T18:26:56.046Z,20.70
2018-08-14T18:29:28.713Z,20.70
2018-08-14T18:32:01.214Z,20.70
2018-08-14T18:34:33.622Z,20.70
2018-08-14T18:37:06.045Z,20.70
2018-08-14T18:39:38.743Z,20.70
2018-08-14T18:42:11.480Z,20.60
2018-08-14T18:44:43.959Z,20.60
2018-08-14T18:47:16.689Z,20.60
2018-08-14T18:49:49.061Z,20.60
2018-08-14T18:52:21.464Z,20.60
2018-08-14T18:54:53.877Z,20.60
2018-08-14T18:57:26.289Z,20.50
2018-08-14T18:59:59.024Z,20.60
2018-08-14T19:02:31.526Z,20.50
2018-08-14T19:05:04.859Z,20.60
2018-08-14T19:07:37.237Z,20.60
2018-08-14T19:10:10.341Z,20.60
2018-08-14T19:12:42.756Z,20.50
2018-08-14T19:15:15.152Z,20.60
2018-08-14T19:17:47.557Z,20.50
2018-08-14T19:20:19.989Z,20.50
2018-08-14T19:22:52.389Z,20.50
2018-08-14T19:25:24.803Z,20.50
2018-08-14T19:27:57.196Z,20.50
2018-08-14T19:30:29.860Z,20.50
2018-08-14T19:33:02.593Z,20.50
2018-08-14T19:35:35.291Z,20.50
2018-08-14T19:38:07.693Z,20.50
2018-08-14T19:40:40.388Z,20.40
2018-08-14T19:43:12.928Z,20.40
2018-08-14T19:45:45.209Z,20.40
2018-08-14T19:48:17.644Z,20.40
2018-08-14T19:50:50.369Z,20.40
2018-08-14T19:53:22.794Z,20.30
2018-08-14T19:55:55.258Z,20.30
2018-08-14T19:58:27.694Z,20.30
2018-08-14T20:01:00.125Z,20.30
2018-08-14T20:03:32.546Z,20.30
2018-08-14T20:06:05.007Z,20.30
2018-08-14T20:08:37.411Z,20.30
2018-08-14T20:11:09.826Z,20.30
2018-08-14T20:13:42.237Z,20.30
2018-08-14T20:16:14.680Z,20.30
2018-08-14T20:18:47.381Z,20.30
2018-08-14T20:21:20.137Z,20.30
2018-08-14T20:23:52.845Z,20.30
2018-08-14T20:26:25.597Z,20.30
2018-08-14T20:28:58.304Z,20.30
2018-08-14T20:31:30.730Z,20.20
2018-08-14T20:34:03.455Z,20.20
2018-08-14T20:36:36.209Z,20.20
2018-08-14T20:39:08.613Z,20.20
2018-08-14T20:41:41.291Z,20.20
2018-08-14T20:44:13.797Z,20.10
2018-08-14T20:46:46.181Z,20.10
2018-08-14T20:49:18.611Z,20.10
2018-08-14T20:51:51.000Z,20.10
2018-08-14T20:54:23.438Z,20.10
2018-08-14T20:56:55.924Z,20.10
2018-08-14T20:59:28.338Z,20.10
2018-08-14T21:02:00.737Z,20.10
2018-08-14T21:04:33.153Z,20.10
2018-08-14T21:07:05.548Z,20.10
2018-08-14T21:09:38.269Z,20.10
2018-08-14T21:12:10.658Z,20.10
2018-08-14T21:14:43.085Z,20.10
2018-08-14T21:17:15.482Z,20.10
2018-08-14T21:19:48.170Z,20.10
2018-08-14T21:22:20.869Z,20.10
2018-08-14T21:24:53.293Z,20.10
2018-08-14T21:27:25.690Z,20.10
2018-08-14T21:29:58.104Z,20.00
2018-08-14T21:32:30.494Z,20.00
2018-08-14T21:35:03.214Z,19.90
2018-08-14T21:37:35.613Z,19.90
2018-08-14T21:40:11.641Z,19.90
2018-08-14T21:42:44.116Z,19.80
2018-08-14T21:45:16.530Z,19.80
2018-08-14T21:47:48.935Z,19.80
2018-08-14T21:50:21.565Z,19.80
2018-08-14T21:52:54.245Z,19.70
2018-08-14T21:55:26.647Z,19.70
2018-08-14T21:57:59.054Z,19.70
2018-08-14T22:01:05.338Z,19.60
2018-08-14T22:03:38.038Z,19.60
2018-08-14T22:06:11.940Z,19.60
2018-08-14T22:08:44.587Z,19.50
2018-08-14T22:11:16.997Z,19.50
2018-08-14T22:13:49.389Z,19.40
2018-08-14T22:16:21.802Z,19.30
2018-08-14T22:18:54.513Z,19.30
2018-08-14T22:21:27.530Z,19.20
2018-08-14T22:23:59.912Z,19.20
2018-08-14T22:26:33.376Z,19.20
2018-08-14T22:29:05.925Z,19.10
2018-08-14T22:31:38.627Z,19.10
2018-08-14T22:34:11.005Z,19.10
2018-08-14T22:36:43.709Z,19.20
2018-08-14T22:39:16.193Z,19.10
2018-08-14T22:41:48.613Z,19.20
2018-08-14T22:44:21.001Z,19.20
2018-08-14T22:46:53.429Z,19.10
2018-08-14T22:49:25.849Z,19.10
2018-08-14T22:51:58.277Z,19.00
2018-08-14T22:54:30.713Z,19.00
2018-08-14T22:57:03.118Z,18.90
2018-08-14T22:59:35.516Z,18.80
2018-08-14T23:02:07.937Z,18.80
2018-08-14T23:04:40.345Z,18.80
2018-08-14T23:07:12.778Z,18.80
2018-08-14T23:09:45.246Z,18.80
2018-08-14T23:12:17.974Z,18.70
2018-08-14T23:14:50.373Z,18.70
2018-08-14T23:17:23.054Z,18.70
2018-08-14T23:19:55.444Z,18.70
2018-08-14T23:22:27.845Z,18.70
2018-08-14T23:25:00.250Z,18.60
2018-08-14T23:27:32.933Z,18.60
2018-08-14T23:30:08.150Z,18.60
2018-08-14T23:32:40.624Z,18.50
2018-08-14T23:35:13.313Z,18.50
2018-08-14T23:37:45.937Z,18.50
2018-08-14T23:40:18.338Z,18.50
2018-08-14T23:42:50.756Z,18.40
2018-08-14T23:45:23.146Z,18.40
2018-08-14T23:47:55.590Z,18.40
2018-08-14T23:50:27.990Z,18.40
2018-08-14T23:53:00.740Z,18.40
2018-08-14T23:55:33.157Z,18.30
2018-08-14T23:58:05.696Z,18.40
